NCAR-RAP Real-Time Weather Data

Output produced by METARs form (06 May 2021  16:28 UTC)
found at http://weather.rap.ucar.edu/surface/
 
KTYS 061553Z VRB03KT 10SM SCT043 SCT250 15/05 A3012 RMK AO2 SLP196 T01500050
KTYS 061453Z 05006KT 10SM FEW026 BKN037 BKN200 14/08 A3015 RMK AO2 SLP207 T01390078 53005
KTYS 061353Z 06012KT 10SM FEW030 SCT250 14/08 A3014 RMK AO2 SLP203 T01390083
KTYS 061253Z 01007KT 10SM FEW005 FEW027 12/09 A3013 RMK AO2 SLP200 T01170089 $
KTYS 061241Z 01006KT 10SM FEW005 FEW027 12/09 A3013 RMK AO2 T01170089 $
KTYS 061153Z 35006KT 10SM FEW025 FEW250 10/08 A3014 RMK AO2 SLP201 70006 T01000083 10111 20078 53021 $
KTYS 061053Z 35003KT 10SM BCFG FEW001 FEW025 SCT250 08/08 A3010 RMK AO2 SLP189 FG BANK S T00830083 $
KTYS 061028Z 00000KT 4SM BCFG BR SCT001 SCT250 08/08 A3009 RMK AO2 FG BANK SE-SW T00830078 $
KTYS 061016Z 00000KT 1/4SM FG VV001 08/08 A3009 RMK AO2 T00830078 RVRNO $
KTYS 061013Z 00000KT 1SM BR BKN001 08/08 A3009 RMK AO2 T00830078 RVRNO $
KTYS 060953Z 00000KT 7SM FEW001 08/08 A3008 RMK AO2 SLP182 T00780078 $
KTYS 060938Z 00000KT 7SM FEW001 09/08 A3008 RMK AO2 T00890083 $
KTYS 060853Z 00000KT 7SM CLR 08/08 A3007 RMK AO2 SLP180 T00830083 55003 $
KTYS 060803Z 06003KT 7SM CLR 08/08 A3007 RMK AO2 T00830083 $
KTYS 060801Z 05003KT 2 1/2SM BR FEW001 09/08 A3007 RMK AO2 VIS 3/4V5 T00890083 $
KTYS 060753Z 00000KT 8SM CLR 10/09 A3007 RMK AO2 SLP176 T01000094 $
KTYS 060653Z 00000KT 10SM CLR 10/09 A3007 RMK AO2 SLP178 T01000094 $
KTYS 060553Z 00000KT 10SM FEW055 11/09 A3008 RMK AO2 SLP182 T01060089 10167 20106 58007 $
KTYS 060453Z 00000KT 10SM BKN055 12/09 A3010 RMK AO2 SLP186 T01170089 402110111 $
KTYS 060353Z 00000KT 10SM BKN055 12/09 A3010 RMK AO2 SLP189 T01220094 $
KTYS 060253Z 00000KT 10SM BKN050 13/09 A3010 RMK AO2 SLP188 T01330089 51020 $
KTYS 060153Z 33006KT 10SM BKN045 14/09 A3010 RMK AO2 SLP186 T01440089 $
KTYS 060053Z 35007KT 10SM BKN034 BKN041 14/09 A3007 RMK AO2 SLP178 T01440094 $